sensor_id;sensor_type;location;lat;lon;timestamp;temperature;humidity
49218;DHT22;35045;51.194;7.268;2024-01-06T00:00:24;6.30;99.90
49218;DHT22;35045;51.194;7.268;2024-01-06T00:02:50;6.30;99.90
49218;DHT22;35045;51.194;7.268;2024-01-06T00:05:16;6.30;99.90
49218;DHT22;35045;51.194;7.268;2024-01-06T00:07:42;6.40;99.90
49218;DHT22;35045;51.194;7.268;2024-01-06T00:10:09;6.40;99.90
49218;DHT22;35045;51.194;7.268;2024-01-06T00:12:35;6.30;99.90
49218;DHT22;35045;51.194;7.268;2024-01-06T00:15:02;6.30;99.90
49218;DHT22;35045;51.194;7.268;2024-01-06T00:17:28;6.30;99.90
49218;DHT22;35045;51.194;7.268;2024-01-06T00:19:54;6.30;99.90
49218;DHT22;35045;51.194;7.268;2024-01-06T00:22:21;6.30;99.90
49218;DHT22;35045;51.194;7.268;2024-01-06T00:24:47;6.30;99.90
49218;DHT22;35045;51.194;7.268;2024-01-06T00:27:14;6.40;99.90
49218;DHT22;35045;51.194;7.268;2024-01-06T00:29:42;6.40;99.90
49218;DHT22;35045;51.194;7.268;2024-01-06T00:32:08;6.30;99.90
49218;DHT22;35045;51.194;7.268;2024-01-06T00:34:34;6.40;99.90
49218;DHT22;35045;51.194;7.268;2024-01-06T00:37:00;6.40;99.90
49218;DHT22;35045;51.194;7.268;2024-01-06T00:39:27;6.40;99.90
49218;DHT22;35045;51.194;7.268;2024-01-06T00:41:53;6.50;99.90
49218;DHT22;35045;51.194;7.268;2024-01-06T00:44:19;6.50;99.90
49218;DHT22;35045;51.194;7.268;2024-01-06T00:46:45;6.60;99.90
49218;DHT22;35045;51.194;7.268;2024-01-06T00:49:12;6.60;99.90
49218;DHT22;35045;51.194;7.268;2024-01-06T00:51:38;6.60;99.90
49218;DHT22;35045;51.194;7.268;2024-01-06T00:54:05;6.70;99.90
49218;DHT22;35045;51.194;7.268;2024-01-06T00:56:31;6.80;99.90
49218;DHT22;35045;51.194;7.268;2024-01-06T00:58:57;6.80;99.90
49218;DHT22;35045;51.194;7.268;2024-01-06T01:01:23;6.90;99.90
49218;DHT22;35045;51.194;7.268;2024-01-06T01:03:49;6.90;99.90
49218;DHT22;35045;51.194;7.268;2024-01-06T01:06:16;6.80;99.90
49218;DHT22;35045;51.194;7.268;2024-01-06T01:08:42;6.90;99.90
49218;DHT22;35045;51.194;7.268;2024-01-06T01:11:08;6.90;99.90
49218;DHT22;35045;51.194;7.268;2024-01-06T01:13:34;6.90;99.90
49218;DHT22;35045;51.194;7.268;2024-01-06T01:16:01;7.00;99.90
49218;DHT22;35045;51.194;7.268;2024-01-06T01:18:27;7.00;99.90
49218;DHT22;35045;51.194;7.268;2024-01-06T01:20:53;7.10;99.90
49218;DHT22;35045;51.194;7.268;2024-01-06T01:23:19;7.00;99.90
49218;DHT22;35045;51.194;7.268;2024-01-06T01:25:46;7.10;99.90
49218;DHT22;35045;51.194;7.268;2024-01-06T01:28:13;7.20;99.90
49218;DHT22;35045;51.194;7.268;2024-01-06T01:30:39;7.20;99.90
49218;DHT22;35045;51.194;7.268;2024-01-06T01:33:05;7.20;99.90
49218;DHT22;35045;51.194;7.268;2024-01-06T01:35:31;7.20;99.90
49218;DHT22;35045;51.194;7.268;2024-01-06T01:37:57;7.30;99.90
49218;DHT22;35045;51.194;7.268;2024-01-06T01:40:24;7.30;99.90
49218;DHT22;35045;51.194;7.268;2024-01-06T01:42:50;7.20;99.90
49218;DHT22;35045;51.194;7.268;2024-01-06T01:45:16;7.30;99.90
49218;DHT22;35045;51.194;7.268;2024-01-06T01:47:42;7.30;99.90
49218;DHT22;35045;51.194;7.268;2024-01-06T01:50:09;7.40;99.90
49218;DHT22;35045;51.194;7.268;2024-01-06T01:52:37;7.40;99.90
49218;DHT22;35045;51.194;7.268;2024-01-06T01:55:04;7.40;99.90
49218;DHT22;35045;51.194;7.268;2024-01-06T01:57:30;7.50;99.90
49218;DHT22;35045;51.194;7.268;2024-01-06T01:59:57;7.50;99.90
49218;DHT22;35045;51.194;7.268;2024-01-06T02:02:23;7.50;99.90
49218;DHT22;35045;51.194;7.268;2024-01-06T02:04:50;7.30;99.90
49218;DHT22;35045;51.194;7.268;2024-01-06T02:07:16;7.40;99.90
49218;DHT22;35045;51.194;7.268;2024-01-06T02:09:43;7.40;99.90
49218;DHT22;35045;51.194;7.268;2024-01-06T02:12:09;7.40;99.90
49218;DHT22;35045;51.194;7.268;2024-01-06T02:14:35;7.40;99.90
49218;DHT22;35045;51.194;7.268;2024-01-06T02:17:01;7.30;99.90
49218;DHT22;35045;51.194;7.268;2024-01-06T02:19:27;7.30;99.90
49218;DHT22;35045;51.194;7.268;2024-01-06T02:21:54;7.30;99.90
49218;DHT22;35045;51.194;7.268;2024-01-06T02:24:20;7.30;99.90
49218;DHT22;35045;51.194;7.268;2024-01-06T02:26:47;7.20;99.90
49218;DHT22;35045;51.194;7.268;2024-01-06T02:29:13;7.30;99.90
49218;DHT22;35045;51.194;7.268;2024-01-06T02:31:39;7.30;99.90
49218;DHT22;35045;51.194;7.268;2024-01-06T02:34:05;7.40;99.90
49218;DHT22;35045;51.194;7.268;2024-01-06T02:36:32;7.40;99.90
49218;DHT22;35045;51.194;7.268;2024-01-06T02:38:58;7.40;99.90
49218;DHT22;35045;51.194;7.268;2024-01-06T02:41:24;7.40;99.90
49218;DHT22;35045;51.194;7.268;2024-01-06T02:43:51;7.40;99.90
49218;DHT22;35045;51.194;7.268;2024-01-06T02:46:17;7.40;99.90
49218;DHT22;35045;51.194;7.268;2024-01-06T02:48:44;7.40;99.90
49218;DHT22;35045;51.194;7.268;2024-01-06T02:51:11;7.40;99.90
49218;DHT22;35045;51.194;7.268;2024-01-06T02:53:38;7.40;99.90
49218;DHT22;35045;51.194;7.268;2024-01-06T02:56:10;7.50;99.90
49218;DHT22;35045;51.194;7.268;2024-01-06T02:58:36;7.60;99.90
49218;DHT22;35045;51.194;7.268;2024-01-06T03:01:02;7.60;99.90
49218;DHT22;35045;51.194;7.268;2024-01-06T03:03:28;7.60;99.90
49218;DHT22;35045;51.194;7.268;2024-01-06T03:05:55;7.50;99.90
49218;DHT22;35045;51.194;7.268;2024-01-06T03:08:21;7.50;99.90
49218;DHT22;35045;51.194;7.268;2024-01-06T03:14:30;7.50;99.90
49218;DHT22;35045;51.194;7.268;2024-01-06T03:16:56;7.50;99.90
49218;DHT22;35045;51.194;7.268;2024-01-06T03:19:23;7.50;99.90
49218;DHT22;35045;51.194;7.268;2024-01-06T03:21:52;7.40;99.90
49218;DHT22;35045;51.194;7.268;2024-01-06T03:24:18;7.50;99.90
49218;DHT22;35045;51.194;7.268;2024-01-06T03:26:44;7.40;99.90
49218;DHT22;35045;51.194;7.268;2024-01-06T03:29:10;7.30;99.90
49218;DHT22;35045;51.194;7.268;2024-01-06T03:31:37;7.20;99.90
49218;DHT22;35045;51.194;7.268;2024-01-06T03:34:03;7.10;99.90
49218;DHT22;35045;51.194;7.268;2024-01-06T03:36:30;6.90;99.90
49218;DHT22;35045;51.194;7.268;2024-01-06T03:38:56;7.00;99.90
49218;DHT22;35045;51.194;7.268;2024-01-06T03:41:22;7.10;99.90
49218;DHT22;35045;51.194;7.268;2024-01-06T03:43:48;7.20;99.90
49218;DHT22;35045;51.194;7.268;2024-01-06T03:46:14;7.20;99.90
49218;DHT22;35045;51.194;7.268;2024-01-06T03:48:40;7.10;99.90
49218;DHT22;35045;51.194;7.268;2024-01-06T03:51:07;7.20;99.90
49218;DHT22;35045;51.194;7.268;2024-01-06T03:53:33;7.20;99.90
49218;DHT22;35045;51.194;7.268;2024-01-06T03:55:59;7.10;99.90
49218;DHT22;35045;51.194;7.268;2024-01-06T03:58:26;7.00;99.90
49218;DHT22;35045;51.194;7.268;2024-01-06T04:00:52;7.00;99.90
49218;DHT22;35045;51.194;7.268;2024-01-06T04:03:19;7.00;99.90
49218;DHT22;35045;51.194;7.268;2024-01-06T04:05:45;7.00;99.90
49218;DHT22;35045;51.194;7.268;2024-01-06T04:08:11;7.10;99.90
49218;DHT22;35045;51.194;7.268;2024-01-06T04:10:37;7.20;99.90
49218;DHT22;35045;51.194;7.268;2024-01-06T04:13:04;7.20;99.90
49218;DHT22;35045;51.194;7.268;2024-01-06T04:15:30;7.20;99.90
49218;DHT22;35045;51.194;7.268;2024-01-06T04:17:56;7.30;99.90
49218;DHT22;35045;51.194;7.268;2024-01-06T04:20:22;7.30;99.90
49218;DHT22;35045;51.194;7.268;2024-01-06T04:22:48;7.30;99.90
49218;DHT22;35045;51.194;7.268;2024-01-06T04:25:14;7.40;99.90
49218;DHT22;35045;51.194;7.268;2024-01-06T04:27:41;7.40;99.90
49218;DHT22;35045;51.194;7.268;2024-01-06T04:30:07;7.50;99.90
49218;DHT22;35045;51.194;7.268;2024-01-06T04:32:33;7.40;99.90
49218;DHT22;35045;51.194;7.268;2024-01-06T04:34:59;7.30;99.90
49218;DHT22;35045;51.194;7.268;2024-01-06T04:37:26;7.20;99.90
49218;DHT22;35045;51.194;7.268;2024-01-06T04:39:52;7.30;99.90
49218;DHT22;35045;51.194;7.268;2024-01-06T04:42:19;7.40;99.90
49218;DHT22;35045;51.194;7.268;2024-01-06T04:44:49;7.50;99.90
49218;DHT22;35045;51.194;7.268;2024-01-06T04:47:15;7.50;99.90
49218;DHT22;35045;51.194;7.268;2024-01-06T04:49:41;7.50;99.90
49218;DHT22;35045;51.194;7.268;2024-01-06T04:52:07;7.50;99.90
49218;DHT22;35045;51.194;7.268;2024-01-06T04:54:33;7.50;99.90
49218;DHT22;35045;51.194;7.268;2024-01-06T04:57:00;7.50;99.90
49218;DHT22;35045;51.194;7.268;2024-01-06T04:59:26;7.40;99.90
49218;DHT22;35045;51.194;7.268;2024-01-06T05:01:54;7.30;99.90
49218;DHT22;35045;51.194;7.268;2024-01-06T05:04:21;7.10;99.90
49218;DHT22;35045;51.194;7.268;2024-01-06T05:06:47;7.00;99.90
49218;DHT22;35045;51.194;7.268;2024-01-06T05:09:13;7.00;99.90
49218;DHT22;35045;51.194;7.268;2024-01-06T05:11:39;7.00;99.90
49218;DHT22;35045;51.194;7.268;2024-01-06T05:14:05;7.10;99.90
49218;DHT22;35045;51.194;7.268;2024-01-06T05:16:32;7.10;99.90
49218;DHT22;35045;51.194;7.268;2024-01-06T05:18:58;7.00;99.90
49218;DHT22;35045;51.194;7.268;2024-01-06T05:21:24;7.10;99.90
49218;DHT22;35045;51.194;7.268;2024-01-06T05:23:51;7.10;99.90
49218;DHT22;35045;51.194;7.268;2024-01-06T05:26:17;7.10;99.90
49218;DHT22;35045;51.194;7.268;2024-01-06T05:28:44;7.10;99.90
49218;DHT22;35045;51.194;7.268;2024-01-06T05:31:10;7.00;99.90
49218;DHT22;35045;51.194;7.268;2024-01-06T05:33:36;6.80;99.90
49218;DHT22;35045;51.194;7.268;2024-01-06T05:36:02;6.50;99.90
49218;DHT22;35045;51.194;7.268;2024-01-06T05:38:28;6.30;99.90
49218;DHT22;35045;51.194;7.268;2024-01-06T05:40:55;6.00;99.90
49218;DHT22;35045;51.194;7.268;2024-01-06T05:43:21;5.80;99.90
49218;DHT22;35045;51.194;7.268;2024-01-06T05:45:47;5.70;99.90
49218;DHT22;35045;51.194;7.268;2024-01-06T05:48:13;5.70;99.90
49218;DHT22;35045;51.194;7.268;2024-01-06T05:50:40;5.70;99.90
49218;DHT22;35045;51.194;7.268;2024-01-06T05:53:07;5.70;99.90
49218;DHT22;35045;51.194;7.268;2024-01-06T05:55:33;5.40;99.90
49218;DHT22;35045;51.194;7.268;2024-01-06T05:57:59;5.40;99.90
49218;DHT22;35045;51.194;7.268;2024-01-06T06:00:27;5.40;99.90
49218;DHT22;35045;51.194;7.268;2024-01-06T06:02:53;5.40;99.90
49218;DHT22;35045;51.194;7.268;2024-01-06T06:05:19;5.50;99.90
49218;DHT22;35045;51.194;7.268;2024-01-06T06:07:46;5.50;99.90
49218;DHT22;35045;51.194;7.268;2024-01-06T06:10:12;5.40;99.90
49218;DHT22;35045;51.194;7.268;2024-01-06T06:12:39;5.30;99.90
49218;DHT22;35045;51.194;7.268;2024-01-06T06:15:05;5.30;99.90
49218;DHT22;35045;51.194;7.268;2024-01-06T06:17:33;5.30;99.90
49218;DHT22;35045;51.194;7.268;2024-01-06T06:19:59;5.40;99.90
49218;DHT22;35045;51.194;7.268;2024-01-06T06:22:26;5.40;99.90
49218;DHT22;35045;51.194;7.268;2024-01-06T06:24:59;5.50;99.90
49218;DHT22;35045;51.194;7.268;2024-01-06T06:27:26;5.60;99.90
49218;DHT22;35045;51.194;7.268;2024-01-06T06:29:54;5.60;99.90
49218;DHT22;35045;51.194;7.268;2024-01-06T06:32:20;5.50;99.90
49218;DHT22;35045;51.194;7.268;2024-01-06T06:34:46;5.60;99.90
49218;DHT22;35045;51.194;7.268;2024-01-06T06:37:12;5.60;99.90
49218;DHT22;35045;51.194;7.268;2024-01-06T06:39:38;5.70;99.90
49218;DHT22;35045;51.194;7.268;2024-01-06T06:42:05;5.80;99.90
49218;DHT22;35045;51.194;7.268;2024-01-06T06:44:31;5.80;99.90
49218;DHT22;35045;51.194;7.268;2024-01-06T06:46:57;5.80;99.90
49218;DHT22;35045;51.194;7.268;2024-01-06T06:49:23;5.60;99.90
49218;DHT22;35045;51.194;7.268;2024-01-06T06:51:49;5.60;99.90
49218;DHT22;35045;51.194;7.268;2024-01-06T06:54:16;5.50;99.90
49218;DHT22;35045;51.194;7.268;2024-01-06T06:56:42;5.50;99.90
49218;DHT22;35045;51.194;7.268;2024-01-06T06:59:09;5.50;99.90
49218;DHT22;35045;51.194;7.268;2024-01-06T07:01:35;5.40;99.90
49218;DHT22;35045;51.194;7.268;2024-01-06T07:04:02;5.30;99.90
49218;DHT22;35045;51.194;7.268;2024-01-06T07:06:29;5.20;99.90
49218;DHT22;35045;51.194;7.268;2024-01-06T07:08:56;5.30;99.90
49218;DHT22;35045;51.194;7.268;2024-01-06T07:11:23;5.30;99.90
49218;DHT22;35045;51.194;7.268;2024-01-06T07:13:50;5.30;99.90
49218;DHT22;35045;51.194;7.268;2024-01-06T07:16:16;5.40;99.90
49218;DHT22;35045;51.194;7.268;2024-01-06T07:18:42;5.40;99.90
49218;DHT22;35045;51.194;7.268;2024-01-06T07:21:08;5.40;99.90
49218;DHT22;35045;51.194;7.268;2024-01-06T07:23:35;5.30;99.90
49218;DHT22;35045;51.194;7.268;2024-01-06T07:26:01;5.30;99.90
49218;DHT22;35045;51.194;7.268;2024-01-06T07:28:27;5.40;99.90
49218;DHT22;35045;51.194;7.268;2024-01-06T07:30:53;5.30;99.90
49218;DHT22;35045;51.194;7.268;2024-01-06T07:33:20;5.40;99.90
49218;DHT22;35045;51.194;7.268;2024-01-06T07:35:47;5.30;99.90
49218;DHT22;35045;51.194;7.268;2024-01-06T07:38:13;5.30;99.90
49218;DHT22;35045;51.194;7.268;2024-01-06T07:40:39;5.30;99.90
49218;DHT22;35045;51.194;7.268;2024-01-06T07:43:06;5.40;99.90
49218;DHT22;35045;51.194;7.268;2024-01-06T07:45:32;5.50;99.90
49218;DHT22;35045;51.194;7.268;2024-01-06T07:47:59;5.40;99.90
49218;DHT22;35045;51.194;7.268;2024-01-06T07:50:26;5.30;99.90
49218;DHT22;35045;51.194;7.268;2024-01-06T07:52:52;5.30;99.90
49218;DHT22;35045;51.194;7.268;2024-01-06T07:55:18;5.20;99.90
49218;DHT22;35045;51.194;7.268;2024-01-06T07:57:45;5.20;99.90
49218;DHT22;35045;51.194;7.268;2024-01-06T08:00:12;5.00;99.90
49218;DHT22;35045;51.194;7.268;2024-01-06T08:02:41;4.90;99.90
49218;DHT22;35045;51.194;7.268;2024-01-06T08:05:08;5.00;99.90
49218;DHT22;35045;51.194;7.268;2024-01-06T08:07:34;5.10;99.90
49218;DHT22;35045;51.194;7.268;2024-01-06T08:10:01;5.20;99.90
49218;DHT22;35045;51.194;7.268;2024-01-06T08:12:31;5.30;99.90
49218;DHT22;35045;51.194;7.268;2024-01-06T08:14:57;5.40;99.90
49218;DHT22;35045;51.194;7.268;2024-01-06T08:17:23;5.30;99.90
49218;DHT22;35045;51.194;7.268;2024-01-06T08:19:49;5.20;99.90
49218;DHT22;35045;51.194;7.268;2024-01-06T08:22:16;5.30;99.90
49218;DHT22;35045;51.194;7.268;2024-01-06T08:24:42;5.30;99.90
49218;DHT22;35045;51.194;7.268;2024-01-06T08:27:08;5.30;99.90
49218;DHT22;35045;51.194;7.268;2024-01-06T08:29:34;5.30;99.90
49218;DHT22;35045;51.194;7.268;2024-01-06T08:32:01;5.30;99.90
49218;DHT22;35045;51.194;7.268;2024-01-06T08:34:27;5.20;99.90
49218;DHT22;35045;51.194;7.268;2024-01-06T08:36:55;5.30;99.90
49218;DHT22;35045;51.194;7.268;2024-01-06T08:39:21;5.40;99.90
49218;DHT22;35045;51.194;7.268;2024-01-06T08:41:48;5.50;99.90
49218;DHT22;35045;51.194;7.268;2024-01-06T08:44:14;5.50;99.90
49218;DHT22;35045;51.194;7.268;2024-01-06T08:46:41;5.70;99.90
49218;DHT22;35045;51.194;7.268;2024-01-06T08:49:07;5.60;99.90
49218;DHT22;35045;51.194;7.268;2024-01-06T08:51:33;5.50;99.90
49218;DHT22;35045;51.194;7.268;2024-01-06T08:53:59;5.50;99.90
49218;DHT22;35045;51.194;7.268;2024-01-06T08:56:26;5.60;99.90
49218;DHT22;35045;51.194;7.268;2024-01-06T08:58:52;5.70;99.90
49218;DHT22;35045;51.194;7.268;2024-01-06T09:01:18;5.50;99.90
49218;DHT22;35045;51.194;7.268;2024-01-06T09:03:45;5.40;99.90
49218;DHT22;35045;51.194;7.268;2024-01-06T09:06:11;5.40;99.90
49218;DHT22;35045;51.194;7.268;2024-01-06T09:08:37;5.50;99.90
49218;DHT22;35045;51.194;7.268;2024-01-06T09:11:03;5.50;99.90
49218;DHT22;35045;51.194;7.268;2024-01-06T09:13:29;5.40;99.90
49218;DHT22;35045;51.194;7.268;2024-01-06T09:15:56;5.30;99.90
49218;DHT22;35045;51.194;7.268;2024-01-06T09:18:22;5.40;99.90
49218;DHT22;35045;51.194;7.268;2024-01-06T09:20:49;5.30;99.90
49218;DHT22;35045;51.194;7.268;2024-01-06T09:23:16;5.30;99.90
49218;DHT22;35045;51.194;7.268;2024-01-06T09:25:42;5.10;99.90
49218;DHT22;35045;51.194;7.268;2024-01-06T09:28:09;5.00;99.90
49218;DHT22;35045;51.194;7.268;2024-01-06T09:30:36;5.10;99.90
49218;DHT22;35045;51.194;7.268;2024-01-06T09:33:03;5.20;99.90
49218;DHT22;35045;51.194;7.268;2024-01-06T09:35:29;5.30;99.90
49218;DHT22;35045;51.194;7.268;2024-01-06T09:37:55;5.20;99.90
49218;DHT22;35045;51.194;7.268;2024-01-06T09:40:23;5.10;99.90
49218;DHT22;35045;51.194;7.268;2024-01-06T09:42:50;5.00;99.90
49218;DHT22;35045;51.194;7.268;2024-01-06T09:45:17;4.80;99.90
49218;DHT22;35045;51.194;7.268;2024-01-06T09:47:48;4.80;99.90
49218;DHT22;35045;51.194;7.268;2024-01-06T09:50:18;4.80;99.90
49218;DHT22;35045;51.194;7.268;2024-01-06T09:52:46;4.80;99.90
49218;DHT22;35045;51.194;7.268;2024-01-06T09:55:23;4.90;99.90
49218;DHT22;35045;51.194;7.268;2024-01-06T09:57:52;4.90;99.90
49218;DHT22;35045;51.194;7.268;2024-01-06T10:00:20;4.80;99.90
49218;DHT22;35045;51.194;7.268;2024-01-06T10:02:49;5.00;99.90
49218;DHT22;35045;51.194;7.268;2024-01-06T10:05:17;5.00;99.90
49218;DHT22;35045;51.194;7.268;2024-01-06T10:07:44;5.10;99.90
49218;DHT22;35045;51.194;7.268;2024-01-06T10:10:11;5.10;99.90
49218;DHT22;35045;51.194;7.268;2024-01-06T10:12:41;5.10;99.90
49218;DHT22;35045;51.194;7.268;2024-01-06T10:15:12;5.10;99.90
49218;DHT22;35045;51.194;7.268;2024-01-06T10:17:41;5.00;99.90
49218;DHT22;35045;51.194;7.268;2024-01-06T10:20:09;4.90;99.90
49218;DHT22;35045;51.194;7.268;2024-01-06T10:22:37;4.80;99.90
49218;DHT22;35045;51.194;7.268;2024-01-06T10:25:08;4.70;99.90
49218;DHT22;35045;51.194;7.268;2024-01-06T10:27:43;4.70;99.90
49218;DHT22;35045;51.194;7.268;2024-01-06T10:30:10;4.70;99.90
49218;DHT22;35045;51.194;7.268;2024-01-06T10:32:37;4.80;99.90
49218;DHT22;35045;51.194;7.268;2024-01-06T10:35:04;4.80;99.90
49218;DHT22;35045;51.194;7.268;2024-01-06T10:37:32;4.90;99.90
49218;DHT22;35045;51.194;7.268;2024-01-06T10:40:12;4.80;99.90
49218;DHT22;35045;51.194;7.268;2024-01-06T10:42:39;4.70;99.90
49218;DHT22;35045;51.194;7.268;2024-01-06T10:45:07;4.50;99.90
49218;DHT22;35045;51.194;7.268;2024-01-06T10:47:36;4.50;99.90
49218;DHT22;35045;51.194;7.268;2024-01-06T10:50:03;4.50;99.90
49218;DHT22;35045;51.194;7.268;2024-01-06T10:52:30;4.50;99.90
49218;DHT22;35045;51.194;7.268;2024-01-06T10:54:57;4.50;99.90
49218;DHT22;35045;51.194;7.268;2024-01-06T10:57:24;4.40;99.90
49218;DHT22;35045;51.194;7.268;2024-01-06T10:59:52;4.40;99.90
49218;DHT22;35045;51.194;7.268;2024-01-06T11:02:18;4.50;99.90
49218;DHT22;35045;51.194;7.268;2024-01-06T11:04:48;4.50;99.90
49218;DHT22;35045;51.194;7.268;2024-01-06T11:07:19;4.50;99.90
49218;DHT22;35045;51.194;7.268;2024-01-06T11:10:12;4.40;99.90
49218;DHT22;35045;51.194;7.268;2024-01-06T11:12:42;4.50;99.90
49218;DHT22;35045;51.194;7.268;2024-01-06T11:15:09;4.50;99.90
49218;DHT22;35045;51.194;7.268;2024-01-06T11:17:55;4.60;99.90
49218;DHT22;35045;51.194;7.268;2024-01-06T11:20:26;4.60;99.90
49218;DHT22;35045;51.194;7.268;2024-01-06T11:22:53;4.50;99.90
49218;DHT22;35045;51.194;7.268;2024-01-06T11:25:21;4.30;99.90
49218;DHT22;35045;51.194;7.268;2024-01-06T11:27:48;4.40;99.90
49218;DHT22;35045;51.194;7.268;2024-01-06T11:30:27;4.50;99.90
49218;DHT22;35045;51.194;7.268;2024-01-06T11:32:58;4.60;99.90
49218;DHT22;35045;51.194;7.268;2024-01-06T11:35:27;4.60;99.90
49218;DHT22;35045;51.194;7.268;2024-01-06T11:37:56;4.60;99.90
49218;DHT22;35045;51.194;7.268;2024-01-06T11:40:24;4.60;99.90
49218;DHT22;35045;51.194;7.268;2024-01-06T11:43:02;4.70;99.90
49218;DHT22;35045;51.194;7.268;2024-01-06T11:45:29;4.70;99.90
49218;DHT22;35045;51.194;7.268;2024-01-06T11:47:57;4.60;99.90
49218;DHT22;35045;51.194;7.268;2024-01-06T11:50:25;4.40;99.90
49218;DHT22;35045;51.194;7.268;2024-01-06T11:52:53;4.40;99.90
49218;DHT22;35045;51.194;7.268;2024-01-06T11:55:19;4.40;99.90
49218;DHT22;35045;51.194;7.268;2024-01-06T11:57:46;4.30;99.90
49218;DHT22;35045;51.194;7.268;2024-01-06T12:00:13;4.20;99.90
49218;DHT22;35045;51.194;7.268;2024-01-06T12:02:40;4.30;99.90
49218;DHT22;35045;51.194;7.268;2024-01-06T12:05:18;4.30;99.90
49218;DHT22;35045;51.194;7.268;2024-01-06T12:07:54;4.40;99.90
49218;DHT22;35045;51.194;7.268;2024-01-06T12:10:21;4.20;99.90
49218;DHT22;35045;51.194;7.268;2024-01-06T12:13:00;4.20;99.90
49218;DHT22;35045;51.194;7.268;2024-01-06T12:15:27;4.40;99.90
49218;DHT22;35045;51.194;7.268;2024-01-06T12:17:54;4.50;99.90
49218;DHT22;35045;51.194;7.268;2024-01-06T12:20:25;4.50;99.90
49218;DHT22;35045;51.194;7.268;2024-01-06T12:22:52;4.50;99.90
49218;DHT22;35045;51.194;7.268;2024-01-06T12:25:23;4.40;99.90
49218;DHT22;35045;51.194;7.268;2024-01-06T12:27:52;4.30;99.90
49218;DHT22;35045;51.194;7.268;2024-01-06T12:30:21;4.40;99.90
49218;DHT22;35045;51.194;7.268;2024-01-06T12:32:49;4.50;99.90
49218;DHT22;35045;51.194;7.268;2024-01-06T12:35:16;4.50;99.90
49218;DHT22;35045;51.194;7.268;2024-01-06T12:37:42;4.50;99.90
49218;DHT22;35045;51.194;7.268;2024-01-06T12:40:09;4.50;99.90
49218;DHT22;35045;51.194;7.268;2024-01-06T12:42:36;4.60;99.90
49218;DHT22;35045;51.194;7.268;2024-01-06T12:45:03;4.60;99.90
49218;DHT22;35045;51.194;7.268;2024-01-06T12:47:29;4.60;99.90
49218;DHT22;35045;51.194;7.268;2024-01-06T12:49:55;4.60;99.90
49218;DHT22;35045;51.194;7.268;2024-01-06T12:52:21;4.60;99.90
49218;DHT22;35045;51.194;7.268;2024-01-06T12:54:47;4.60;99.90
49218;DHT22;35045;51.194;7.268;2024-01-06T12:57:14;4.60;99.90
49218;DHT22;35045;51.194;7.268;2024-01-06T12:59:40;4.50;99.90
49218;DHT22;35045;51.194;7.268;2024-01-06T13:02:06;4.50;99.90
49218;DHT22;35045;51.194;7.268;2024-01-06T13:04:32;4.50;99.90
49218;DHT22;35045;51.194;7.268;2024-01-06T13:07:00;4.40;99.90
49218;DHT22;35045;51.194;7.268;2024-01-06T13:09:28;4.30;99.90
49218;DHT22;35045;51.194;7.268;2024-01-06T13:11:54;4.20;99.90
49218;DHT22;35045;51.194;7.268;2024-01-06T13:14:21;4.00;99.90
49218;DHT22;35045;51.194;7.268;2024-01-06T13:16:48;4.00;99.90
49218;DHT22;35045;51.194;7.268;2024-01-06T13:19:14;4.00;99.90
49218;DHT22;35045;51.194;7.268;2024-01-06T13:21:40;4.00;99.90
49218;DHT22;35045;51.194;7.268;2024-01-06T13:24:07;4.00;99.90
49218;DHT22;35045;51.194;7.268;2024-01-06T13:26:33;3.90;99.90
49218;DHT22;35045;51.194;7.268;2024-01-06T13:28:59;3.80;99.90
49218;DHT22;35045;51.194;7.268;2024-01-06T13:31:25;3.90;99.90
49218;DHT22;35045;51.194;7.268;2024-01-06T13:33:52;3.90;99.90
49218;DHT22;35045;51.194;7.268;2024-01-06T13:36:20;3.90;99.90
49218;DHT22;35045;51.194;7.268;2024-01-06T13:38:46;3.90;99.90
49218;DHT22;35045;51.194;7.268;2024-01-06T13:41:15;3.90;99.90
49218;DHT22;35045;51.194;7.268;2024-01-06T13:43:41;3.80;99.90
49218;DHT22;35045;51.194;7.268;2024-01-06T13:46:08;3.70;99.90
49218;DHT22;35045;51.194;7.268;2024-01-06T13:48:34;3.70;99.90
49218;DHT22;35045;51.194;7.268;2024-01-06T13:51:00;3.70;99.90
49218;DHT22;35045;51.194;7.268;2024-01-06T13:53:26;3.80;99.90
49218;DHT22;35045;51.194;7.268;2024-01-06T13:55:53;3.90;99.90
49218;DHT22;35045;51.194;7.268;2024-01-06T13:58:19;3.90;99.90
49218;DHT22;35045;51.194;7.268;2024-01-06T14:00:45;3.90;99.90
49218;DHT22;35045;51.194;7.268;2024-01-06T14:03:12;3.60;99.90
49218;DHT22;35045;51.194;7.268;2024-01-06T14:05:38;3.60;99.90
49218;DHT22;35045;51.194;7.268;2024-01-06T14:08:06;3.50;99.90
49218;DHT22;35045;51.194;7.268;2024-01-06T14:10:32;3.30;99.90
49218;DHT22;35045;51.194;7.268;2024-01-06T14:12:58;3.50;99.90
49218;DHT22;35045;51.194;7.268;2024-01-06T14:15:25;3.70;99.90
49218;DHT22;35045;51.194;7.268;2024-01-06T14:17:52;3.70;99.90
49218;DHT22;35045;51.194;7.268;2024-01-06T14:20:19;3.80;99.90
49218;DHT22;35045;51.194;7.268;2024-01-06T14:22:46;3.80;99.90
49218;DHT22;35045;51.194;7.268;2024-01-06T14:25:15;3.90;99.90
49218;DHT22;35045;51.194;7.268;2024-01-06T14:27:46;3.90;99.90
49218;DHT22;35045;51.194;7.268;2024-01-06T14:30:13;4.00;99.90
49218;DHT22;35045;51.194;7.268;2024-01-06T14:32:42;4.00;99.90
49218;DHT22;35045;51.194;7.268;2024-01-06T14:35:08;4.00;99.90
49218;DHT22;35045;51.194;7.268;2024-01-06T14:37:38;4.00;99.90
49218;DHT22;35045;51.194;7.268;2024-01-06T14:40:06;3.90;99.90
49218;DHT22;35045;51.194;7.268;2024-01-06T14:42:32;3.90;99.90
49218;DHT22;35045;51.194;7.268;2024-01-06T14:44:59;3.80;99.90
49218;DHT22;35045;51.194;7.268;2024-01-06T14:47:25;3.60;99.90
49218;DHT22;35045;51.194;7.268;2024-01-06T14:49:51;3.60;99.90
49218;DHT22;35045;51.194;7.268;2024-01-06T14:52:18;3.40;99.90
49218;DHT22;35045;51.194;7.268;2024-01-06T14:54:45;3.40;99.90
49218;DHT22;35045;51.194;7.268;2024-01-06T14:57:11;3.50;99.90
49218;DHT22;35045;51.194;7.268;2024-01-06T14:59:38;3.50;99.90
49218;DHT22;35045;51.194;7.268;2024-01-06T15:02:05;3.60;99.90
49218;DHT22;35045;51.194;7.268;2024-01-06T15:04:33;3.70;99.90
49218;DHT22;35045;51.194;7.268;2024-01-06T15:06:59;3.90;99.90
49218;DHT22;35045;51.194;7.268;2024-01-06T15:09:26;3.90;99.90
49218;DHT22;35045;51.194;7.268;2024-01-06T15:11:54;3.90;99.90
49218;DHT22;35045;51.194;7.268;2024-01-06T15:14:20;3.90;99.90
49218;DHT22;35045;51.194;7.268;2024-01-06T15:16:46;3.90;99.90
49218;DHT22;35045;51.194;7.268;2024-01-06T15:19:12;3.90;99.90
49218;DHT22;35045;51.194;7.268;2024-01-06T15:21:38;3.80;99.90
49218;DHT22;35045;51.194;7.268;2024-01-06T15:24:05;3.70;99.90
49218;DHT22;35045;51.194;7.268;2024-01-06T15:26:31;3.60;99.90
49218;DHT22;35045;51.194;7.268;2024-01-06T15:28:57;3.60;99.90
49218;DHT22;35045;51.194;7.268;2024-01-06T15:31:27;3.70;99.90
49218;DHT22;35045;51.194;7.268;2024-01-06T15:33:54;3.70;99.90
49218;DHT22;35045;51.194;7.268;2024-01-06T15:36:20;3.50;99.90
49218;DHT22;35045;51.194;7.268;2024-01-06T15:38:47;3.50;99.90
49218;DHT22;35045;51.194;7.268;2024-01-06T15:41:14;3.40;99.90
49218;DHT22;35045;51.194;7.268;2024-01-06T15:43:40;3.50;99.90
49218;DHT22;35045;51.194;7.268;2024-01-06T15:46:07;3.40;99.90